createdAt,value
2022-12-25T00:00:01.633Z,101018.52
2022-12-25T00:01:15.903Z,101014.98
2022-12-25T00:02:19.193Z,101022.07
2022-12-25T00:03:22.922Z,101007.72
2022-12-25T00:04:26.319Z,101010.42
2022-12-25T00:05:29.513Z,101009.42
2022-12-25T00:06:32.588Z,101006.72
2022-12-25T00:07:35.731Z,101013.78
2022-12-25T00:08:40.094Z,101011.92
2022-12-25T00:09:43.320Z,101015.48
2022-12-25T00:10:46.358Z,101006.72
2022-12-25T00:11:49.531Z,101004.86
2022-12-25T00:12:52.689Z,101005.87
2022-12-25T00:13:56.321Z,101004.86
2022-12-25T00:14:59.733Z,101004.02
2022-12-25T00:16:11.690Z,101006.72
2022-12-25T00:17:14.889Z,101007.56
2022-12-25T00:18:18.124Z,101006.53
2022-12-25T00:19:21.204Z,101002.83
2022-12-25T00:20:24.419Z,101002.67
2022-12-25T00:21:27.867Z,101001.66
2022-12-25T00:22:31.548Z,101004.17
2022-12-25T00:23:35.189Z,101004.02
2022-12-25T00:24:38.336Z,101009.11
2022-12-25T00:25:41.593Z,101007.06
2022-12-25T00:26:44.734Z,101008.76
2022-12-25T00:27:47.899Z,100997.95
2022-12-25T00:28:55.919Z,101003.36
2022-12-25T00:29:59.041Z,101002.35
2022-12-25T00:31:13.393Z,101004.05
2022-12-25T00:32:16.675Z,101002.00
2022-12-25T00:33:19.805Z,100999.30
2022-12-25T00:34:22.906Z,100998.45
2022-12-25T00:35:26.059Z,100999.30
2022-12-25T00:36:29.226Z,101000.31
2022-12-25T00:37:32.481Z,100998.45
2022-12-25T00:38:38.015Z,100993.91
2022-12-25T00:39:42.174Z,100991.89
2022-12-25T00:40:45.632Z,100987.99
2022-12-25T00:42:07.079Z,100988.68
2022-12-25T00:43:10.176Z,100993.77
2022-12-25T00:44:13.617Z,100989.02
2022-12-25T00:45:17.095Z,100987.16
2022-12-25T00:46:20.367Z,100983.62
2022-12-25T00:47:23.750Z,100977.56
2022-12-25T00:48:27.711Z,100990.88
2022-12-25T00:49:30.926Z,100986.16
2022-12-25T00:50:33.992Z,100985.16
2022-12-25T00:51:37.302Z,100991.22
2022-12-25T00:52:40.571Z,100991.05
2022-12-25T00:53:43.651Z,100987.34
2022-12-25T00:54:46.726Z,100987.34
2022-12-25T00:55:58.158Z,100992.75
2022-12-25T00:57:02.116Z,100995.61
2022-12-25T00:58:05.287Z,100995.61
2022-12-25T00:59:08.460Z,100986.00
2022-12-25T01:00:13.702Z,100995.96
2022-12-25T01:01:17.277Z,100995.96
2022-12-25T01:02:23.363Z,100993.42
2022-12-25T01:03:27.042Z,100985.47
2022-12-25T01:04:30.215Z,100992.57
2022-12-25T01:05:33.295Z,100995.27
2022-12-25T01:06:36.682Z,100994.27
2022-12-25T01:07:39.855Z,100996.97
2022-12-25T01:08:45.255Z,100994.27
2022-12-25T01:10:07.330Z,100991.56
2022-12-25T01:11:10.471Z,100994.27
2022-12-25T01:12:13.652Z,100996.28
2022-12-25T01:13:16.731Z,100995.43
2022-12-25T01:14:20.015Z,100998.32
2022-12-25T01:15:23.152Z,100985.83
2022-12-25T01:16:26.884Z,100990.53
2022-12-25T01:17:30.266Z,100995.94
2022-12-25T01:18:33.748Z,100990.69
2022-12-25T01:19:36.832Z,100988.18
2022-12-25T01:20:40.028Z,100998.30
2022-12-25T01:21:43.293Z,100993.91
2022-12-25T01:22:46.416Z,100987.84
2022-12-25T01:23:50.800Z,100985.14
2022-12-25T01:24:53.965Z,100987.15
2022-12-25T01:25:58.963Z,100990.01
2022-12-25T01:27:02.204Z,100988.34
2022-12-25T01:28:05.561Z,100991.20
2022-12-25T01:29:08.769Z,100993.91
2022-12-25T01:30:12.447Z,100993.91
2022-12-25T01:31:17.741Z,100995.06
2022-12-25T01:32:21.262Z,100995.91
2022-12-25T01:33:24.570Z,100992.71
2022-12-25T01:34:27.612Z,100992.71
2022-12-25T01:35:30.848Z,100992.87
2022-12-25T01:36:34.035Z,100992.87
2022-12-25T01:37:37.289Z,100992.87
2022-12-25T01:38:40.591Z,100996.58
2022-12-25T01:39:43.759Z,101001.98
2022-12-25T01:40:46.953Z,100998.61
2022-12-25T01:41:50.111Z,100999.63
2022-12-25T01:42:53.151Z,100997.92
2022-12-25T01:44:05.722Z,100993.53
2022-12-25T01:45:29.026Z,100993.69
2022-12-25T01:46:32.801Z,100994.72
2022-12-25T01:47:35.853Z,101000.28
2022-12-25T01:48:39.496Z,100999.43
2022-12-25T01:49:46.116Z,100993.34
2022-12-25T01:50:52.730Z,100996.89
2022-12-25T01:52:02.094Z,100995.19
2022-12-25T01:53:06.588Z,100995.19
2022-12-25T01:54:13.703Z,100995.19
2022-12-25T01:55:17.201Z,101000.59
2022-12-25T01:56:20.356Z,100999.77
2022-12-25T01:57:26.905Z,100994.19
2022-12-25T01:58:30.632Z,100995.73
2022-12-25T01:59:33.813Z,100996.39
2022-12-25T02:00:37.106Z,100998.93
2022-12-25T02:01:40.367Z,101001.62
2022-12-25T02:02:45.171Z,100996.92
2022-12-25T02:03:48.516Z,100996.77
2022-12-25T02:05:13.204Z,100998.42
2022-12-25T02:06:16.596Z,100994.72
2022-12-25T02:07:22.851Z,101000.81
2022-12-25T02:08:26.223Z,101002.51
2022-12-25T02:09:29.473Z,101000.47
2022-12-25T02:10:32.840Z,100999.30
2022-12-25T02:11:54.076Z,101004.55
2022-12-25T02:12:58.014Z,100996.26
2022-12-25T02:14:01.330Z,100998.80
2022-12-25T02:15:13.977Z,100992.55
2022-12-25T02:16:20.465Z,100995.25
2022-12-25T02:17:33.143Z,101000.66
2022-12-25T02:18:45.686Z,101001.66
2022-12-25T02:20:10.546Z,100992.70
2022-12-25T02:21:38.059Z,100999.15
2022-12-25T02:23:02.682Z,100999.30
2022-12-25T02:24:38.017Z,100994.91
2022-12-25T02:25:56.757Z,100997.77
2022-12-25T02:27:26.159Z,100989.86
2022-12-25T02:28:51.760Z,100991.87
2022-12-25T02:30:09.887Z,100993.22
2022-12-25T02:31:16.347Z,100987.13
2022-12-25T02:32:26.177Z,100986.63
2022-12-25T02:33:53.957Z,100994.88
2022-12-25T02:35:00.977Z,101004.14
2022-12-25T02:36:07.679Z,101003.63
2022-12-25T02:37:20.054Z,100999.39
2022-12-25T02:38:29.275Z,101009.38
2022-12-25T02:39:57.162Z,100998.58
2022-12-25T02:41:03.970Z,101008.34
2022-12-25T02:42:10.613Z,101006.33
2022-12-25T02:43:35.535Z,101011.73
2022-12-25T02:45:00.828Z,101012.58
2022-12-25T02:46:27.710Z,101013.58
2022-12-25T02:47:51.123Z,101006.67
2022-12-25T02:49:18.977Z,101000.23
2022-12-25T02:50:43.455Z,101004.98
2022-12-25T02:52:14.461Z,101010.37
2022-12-25T02:53:35.445Z,101013.23
2022-12-25T02:55:00.232Z,101021.48
2022-12-25T02:56:22.125Z,101020.13
2022-12-25T02:57:47.079Z,101015.08
2022-12-25T02:59:08.515Z,101018.78
2022-12-25T03:00:32.228Z,101021.47
2022-12-25T03:01:56.282Z,101018.44
2022-12-25T03:03:20.572Z,101026.22
2022-12-25T03:04:44.899Z,101021.67
2022-12-25T03:06:06.861Z,101021.67
2022-12-25T03:07:16.243Z,101022.48
2022-12-25T03:09:57.713Z,101029.98
2022-12-25T03:11:27.713Z,101023.03
2022-12-25T03:12:51.041Z,101031.98
2022-12-25T03:14:02.606Z,101029.43
2022-12-25T03:15:26.205Z,101029.43
2022-12-25T03:16:48.584Z,101034.83
2022-12-25T03:17:52.228Z,101038.22
2022-12-25T03:18:58.158Z,101044.13
2022-12-25T03:20:19.721Z,101033.17
2022-12-25T03:21:41.316Z,101037.38
2022-12-25T03:23:04.048Z,101038.92
2022-12-25T03:24:25.664Z,101039.77
2022-12-25T03:25:47.579Z,101043.48
2022-12-25T03:26:56.766Z,101040.78
2022-12-25T03:28:00.429Z,101043.48
2022-12-25T03:29:03.699Z,101041.47
2022-12-25T03:30:26.542Z,101038.58
2022-12-25T03:31:45.084Z,101041.97
2022-12-25T03:33:13.568Z,101044.33
2022-12-25T03:34:50.272Z,101037.08
2022-12-25T03:36:08.922Z,101040.78
2022-12-25T03:37:46.288Z,101035.57
2022-12-25T03:40:46.117Z,101029.33
2022-12-25T03:42:11.063Z,101036.73
2022-12-25T03:45:27.487Z,101041.32
2022-12-25T03:46:52.214Z,101033.84
2022-12-25T03:48:15.248Z,101039.58
2022-12-25T03:49:46.084Z,101047.83
2022-12-25T03:51:14.209Z,101047.17
2022-12-25T03:52:37.744Z,101040.92
2022-12-25T03:54:08.395Z,101047.17
2022-12-25T03:55:31.395Z,101054.42
2022-12-25T03:56:55.592Z,101049.87
2022-12-25T03:58:16.924Z,101051.53
2022-12-25T03:59:40.196Z,101045.12
2022-12-25T04:01:01.814Z,101051.38
2022-12-25T04:02:23.395Z,101049.53
2022-12-25T04:03:45.217Z,101049.69
2022-12-25T04:05:06.577Z,101055.27
2022-12-25T04:06:28.248Z,101048.17
2022-12-25T04:07:49.898Z,101048.33
2022-12-25T04:09:11.461Z,101049.17
2022-12-25T04:10:33.725Z,101050.18
2022-12-25T04:12:02.006Z,101044.78
2022-12-25T04:13:18.496Z,101047.48
2022-12-25T04:14:40.083Z,101049.33
2022-12-25T04:16:01.445Z,101051.18
2022-12-25T04:17:22.748Z,101053.03
2022-12-25T04:18:44.458Z,101054.06
2022-12-25T04:20:05.790Z,101052.19
2022-12-25T04:21:27.360Z,101054.73
2022-12-25T04:22:48.934Z,101058.13
2022-12-25T04:24:10.606Z,101050.69
2022-12-25T04:25:32.031Z,101058.48
2022-12-25T04:26:53.464Z,101056.47
2022-12-25T04:28:20.038Z,101057.98
2022-12-25T04:29:41.852Z,101060.52
2022-12-25T04:31:03.506Z,101055.97
2022-12-25T04:32:24.849Z,101064.08
2022-12-25T04:33:46.458Z,101057.13
2022-12-25T04:35:08.107Z,101060.83
2022-12-25T04:36:12.251Z,101064.57
2022-12-25T04:37:15.390Z,101069.62
2022-12-25T04:38:20.384Z,101065.08
2022-12-25T04:39:23.617Z,101070.33
2022-12-25T04:40:26.917Z,101063.07
2022-12-25T04:41:30.178Z,101061.03
2022-12-25T04:42:33.363Z,101057.33
2022-12-25T04:43:36.576Z,101056.17
2022-12-25T04:44:39.775Z,101062.23
2022-12-25T04:45:43.007Z,101067.48
2022-12-25T04:46:46.588Z,101061.07
2022-12-25T04:47:49.865Z,101060.89
2022-12-25T04:48:53.124Z,101060.73
2022-12-25T04:49:56.326Z,101066.98
2022-12-25T04:51:11.947Z,101058.72
2022-12-25T04:52:15.137Z,101069.52
2022-12-25T04:53:19.486Z,101059.57
2022-12-25T04:54:22.954Z,101064.78
2022-12-25T04:55:26.146Z,101065.62
2022-12-25T04:56:29.396Z,101064.63
2022-12-25T04:57:33.399Z,101067.33
2022-12-25T04:58:36.680Z,101069.02
2022-12-25T04:59:39.866Z,101072.58
2022-12-25T05:00:43.043Z,101074.27
2022-12-25T05:01:46.309Z,101071.57
2022-12-25T05:02:49.593Z,101073.23
2022-12-25T05:03:52.962Z,101074.08
2022-12-25T05:04:56.107Z,101075.78
2022-12-25T05:05:59.945Z,101083.88
2022-12-25T05:07:03.136Z,101083.73
2022-12-25T05:08:07.151Z,101085.42
2022-12-25T05:09:10.518Z,101084.58
2022-12-25T05:10:13.825Z,101087.94
2022-12-25T05:11:16.973Z,101076.98
2022-12-25T05:12:20.365Z,101085.08
2022-12-25T05:13:23.773Z,101085.08
2022-12-25T05:14:27.009Z,101089.83
2022-12-25T05:15:30.244Z,101087.28
2022-12-25T05:16:33.583Z,101083.73
2022-12-25T05:17:37.076Z,101086.58
2022-12-25T05:18:40.294Z,101086.73
2022-12-25T05:19:43.539Z,101091.33
2022-12-25T05:20:54.647Z,101089.62
2022-12-25T05:21:57.839Z,101088.78
2022-12-25T05:23:01.000Z,101080.67
2022-12-25T05:24:04.301Z,101080.67
2022-12-25T05:25:07.891Z,101084.23
2022-12-25T05:26:11.269Z,101087.78
2022-12-25T05:27:14.820Z,101087.59
2022-12-25T05:28:18.200Z,101085.73
2022-12-25T05:29:21.467Z,101085.73
2022-12-25T05:30:24.611Z,101087.44
2022-12-25T05:31:27.978Z,101086.43
2022-12-25T05:32:31.143Z,101086.43
2022-12-25T05:33:34.223Z,101086.43
2022-12-25T05:34:37.381Z,101089.12
2022-12-25T05:35:40.684Z,101084.58
2022-12-25T05:36:43.833Z,101092.52
2022-12-25T05:37:47.146Z,101088.28
2022-12-25T05:38:50.652Z,101097.23
2022-12-25T05:39:53.786Z,101099.94
2022-12-25T05:40:56.869Z,101086.27
2022-12-25T05:42:00.520Z,101093.34
2022-12-25T05:43:03.659Z,101087.78
2022-12-25T05:44:06.813Z,101089.63
2022-12-25T05:45:10.711Z,101093.19
2022-12-25T05:46:14.813Z,101101.29
2022-12-25T05:47:17.914Z,101096.73
2022-12-25T05:48:21.115Z,101090.48
2022-12-25T05:49:24.271Z,101096.89
2022-12-25T05:50:27.399Z,101098.59
2022-12-25T05:51:33.003Z,101095.89
2022-12-25T05:52:36.185Z,101101.29
2022-12-25T05:53:40.530Z,101098.43
2022-12-25T05:54:43.711Z,101101.98
2022-12-25T05:55:46.903Z,101102.83
2022-12-25T05:56:50.078Z,101099.94
2022-12-25T05:57:53.156Z,101108.89
2022-12-25T05:58:56.484Z,101108.89
2022-12-25T05:59:59.678Z,101113.45
2022-12-25T06:01:03.359Z,101110.75
2022-12-25T06:02:06.976Z,101113.45
2022-12-25T06:03:10.263Z,101108.89
2022-12-25T06:04:13.419Z,101111.59
2022-12-25T06:05:16.713Z,101110.75
2022-12-25T06:06:20.656Z,101108.89
2022-12-25T06:07:23.906Z,101106.19
2022-12-25T06:08:26.947Z,101117.69
2022-12-25T06:09:30.071Z,101115.14
2022-12-25T06:10:33.107Z,101123.94
2022-12-25T06:11:36.298Z,101114.84
2022-12-25T06:12:39.374Z,101113.98
2022-12-25T06:13:42.629Z,101116.69
2022-12-25T06:14:45.792Z,101117.53
2022-12-25T06:15:48.862Z,101122.94
2022-12-25T06:16:53.391Z,101117.53
2022-12-25T06:17:56.568Z,101124.64
2022-12-25T06:18:59.822Z,101125.64
2022-12-25T06:20:03.303Z,101124.80
2022-12-25T06:21:08.981Z,101130.04
2022-12-25T06:22:12.194Z,101128.00
2022-12-25T06:23:15.542Z,101127.00
2022-12-25T06:24:21.474Z,101127.69
2022-12-25T06:25:23.530Z,101126.66
2022-12-25T06:26:27.072Z,101134.60
2022-12-25T06:27:30.262Z,101134.45
2022-12-25T06:28:33.449Z,101132.44
2022-12-25T06:29:36.724Z,101133.95
2022-12-25T06:30:39.901Z,101140.20
2022-12-25T06:31:43.055Z,101135.48
2022-12-25T06:32:46.251Z,101132.78
2022-12-25T06:33:49.656Z,101134.45
2022-12-25T06:34:52.893Z,101139.85
2022-12-25T06:35:56.069Z,101137.84
2022-12-25T06:36:59.667Z,101140.55
2022-12-25T06:38:02.864Z,101138.69
2022-12-25T06:39:06.042Z,101137.53
2022-12-25T06:40:09.958Z,101134.83
2022-12-25T06:41:16.283Z,101137.53
2022-12-25T06:42:19.454Z,101139.03
2022-12-25T06:43:22.674Z,101137.03
2022-12-25T06:44:26.005Z,101138.73
2022-12-25T06:45:29.235Z,101131.44
2022-12-25T06:46:32.700Z,101134.98
2022-12-25T06:47:37.357Z,101131.44
2022-12-25T06:48:43.521Z,101133.13
2022-12-25T06:49:46.906Z,101131.44
2022-12-25T06:50:50.185Z,101126.03
2022-12-25T06:51:53.450Z,101137.88
2022-12-25T06:52:57.623Z,101132.47
2022-12-25T06:54:03.912Z,101130.61
2022-12-25T06:55:07.628Z,101138.53
2022-12-25T06:56:15.168Z,101139.38
2022-12-25T06:57:18.707Z,101135.67
2022-12-25T06:58:22.053Z,101143.62
2022-12-25T06:59:25.188Z,101139.92
2022-12-25T07:00:28.367Z,101133.47
2022-12-25T07:01:47.133Z,101141.58
2022-12-25T07:02:50.438Z,101140.58
2022-12-25T07:03:56.985Z,101136.87
2022-12-25T07:05:00.951Z,101129.61
2022-12-25T07:06:04.224Z,101142.27
2022-12-25T07:07:09.557Z,101138.56
2022-12-25T07:08:13.262Z,101132.31
2022-12-25T07:09:16.399Z,101130.45
2022-12-25T07:10:20.067Z,101137.56
2022-12-25T07:11:23.251Z,101139.22
2022-12-25T07:12:26.890Z,101137.21
2022-12-25T07:13:30.062Z,101135.36
2022-12-25T07:14:33.114Z,101137.90
2022-12-25T07:15:36.366Z,101131.45
2022-12-25T07:16:39.544Z,101133.16
2022-12-25T07:17:43.111Z,101141.95
2022-12-25T07:18:46.321Z,101140.95
2022-12-25T07:19:49.766Z,101138.24
2022-12-25T07:20:55.035Z,101139.94
2022-12-25T07:21:58.120Z,101144.30
2022-12-25T07:23:01.391Z,101142.45
2022-12-25T07:24:04.817Z,101138.05
2022-12-25T07:25:08.204Z,101143.30
2022-12-25T07:26:13.959Z,101137.05
2022-12-25T07:27:17.099Z,101141.61
2022-12-25T07:28:20.292Z,101140.59
2022-12-25T07:29:23.320Z,101151.41
2022-12-25T07:30:27.866Z,101154.97
2022-12-25T07:31:31.160Z,101149.56
2022-12-25T07:32:34.270Z,101156.66
2022-12-25T07:33:37.627Z,101154.97
2022-12-25T07:34:40.723Z,101160.38
2022-12-25T07:35:44.073Z,101154.81
2022-12-25T07:36:47.302Z,101154.65
2022-12-25T07:37:50.378Z,101150.05
2022-12-25T07:38:53.551Z,101150.75
2022-12-25T07:39:57.612Z,101150.59
2022-12-25T07:41:00.948Z,101153.14
2022-12-25T07:42:04.096Z,101153.80
2022-12-25T07:43:07.575Z,101149.92
2022-12-25T07:44:10.776Z,101155.14
2022-12-25T07:45:13.962Z,101155.98
2022-12-25T07:46:17.513Z,101159.37
2022-12-25T07:47:20.926Z,101150.26
2022-12-25T07:48:25.009Z,101158.02
2022-12-25T07:49:28.354Z,101154.31
2022-12-25T07:50:31.702Z,101155.00
2022-12-25T07:51:34.834Z,101157.51
2022-12-25T07:52:43.235Z,101154.65
2022-12-25T07:53:43.039Z,101158.04
2022-12-25T07:54:46.317Z,101152.47
2022-12-25T07:55:58.041Z,101155.98
2022-12-25T07:57:01.322Z,101155.83
2022-12-25T07:58:04.522Z,101152.97
2022-12-25T07:59:09.497Z,101152.80
2022-12-25T08:00:14.509Z,101158.87
2022-12-25T08:01:20.756Z,101157.02
2022-12-25T08:02:26.088Z,101156.85
2022-12-25T08:03:29.731Z,101157.51
2022-12-25T08:04:33.000Z,101154.64
2022-12-25T08:05:36.192Z,101157.02
2022-12-25T08:06:39.555Z,101159.53
2022-12-25T08:07:42.750Z,101161.23
2022-12-25T08:08:46.033Z,101162.97
2022-12-25T08:09:49.227Z,101156.55
2022-12-25T08:10:52.513Z,101159.09
2022-12-25T08:11:55.602Z,101157.20
2022-12-25T08:12:58.776Z,101151.78
2022-12-25T08:14:03.859Z,101153.67
2022-12-25T08:15:07.619Z,101150.12
2022-12-25T08:16:11.283Z,101150.97
2022-12-25T08:17:14.656Z,101151.13
2022-12-25T08:18:17.915Z,101149.27
2022-12-25T08:19:21.021Z,101150.12
2022-12-25T08:20:24.177Z,101150.77
2022-12-25T08:21:27.389Z,101149.77
2022-12-25T08:22:30.576Z,101151.45
2022-12-25T08:23:35.079Z,101147.74
2022-12-25T08:24:38.326Z,101156.52
2022-12-25T08:25:41.557Z,101153.65
2022-12-25T08:26:44.823Z,101150.94
2022-12-25T08:27:47.893Z,101145.37
2022-12-25T08:28:51.425Z,101141.81
2022-12-25T08:29:54.617Z,101142.66
2022-12-25T08:30:57.791Z,101146.21
2022-12-25T08:32:01.043Z,101144.36
2022-12-25T08:33:04.423Z,101143.15
2022-12-25T08:34:07.516Z,101150.27
2022-12-25T08:35:10.768Z,101144.68
2022-12-25T08:36:14.419Z,101143.67
2022-12-25T08:37:17.498Z,101147.19
2022-12-25T08:38:20.746Z,101139.92
2022-12-25T08:39:24.276Z,101138.06
2022-12-25T08:40:27.661Z,101147.03
2022-12-25T08:41:31.628Z,101138.91
2022-12-25T08:42:34.688Z,101144.16
2022-12-25T08:43:38.147Z,101145.01
2022-12-25T08:44:41.450Z,101137.54
2022-12-25T08:45:46.941Z,101134.83
2022-12-25T08:46:50.231Z,101143.48
2022-12-25T08:47:56.928Z,101138.91
2022-12-25T08:49:00.026Z,101138.71
2022-12-25T08:50:03.353Z,101139.56
2022-12-25T08:51:10.163Z,101135.84
2022-12-25T08:52:13.471Z,101133.98
2022-12-25T08:53:17.249Z,101135.52
2022-12-25T08:54:20.509Z,101137.17
2022-12-25T08:55:23.566Z,101132.61
2022-12-25T08:56:27.148Z,101132.45
2022-12-25T08:57:30.389Z,101133.13
2022-12-25T08:58:33.498Z,101136.00
2022-12-25T08:59:36.700Z,101136.84
2022-12-25T09:00:40.224Z,101137.34
2022-12-25T09:01:43.369Z,101139.20
2022-12-25T09:02:46.703Z,101137.34
2022-12-25T09:03:49.962Z,101140.89
2022-12-25T09:04:53.150Z,101135.47
2022-12-25T09:05:56.303Z,101139.03
2022-12-25T09:06:59.419Z,101147.84
2022-12-25T09:08:02.593Z,101139.52
2022-12-25T09:09:05.621Z,101142.06
2022-12-25T09:10:10.605Z,101135.80
2022-12-25T09:11:14.455Z,101134.62
2022-12-25T09:12:17.788Z,101136.31
2022-12-25T09:13:20.955Z,101145.94
2022-12-25T09:14:24.170Z,101137.81
2022-12-25T09:15:27.449Z,101137.48
2022-12-25T09:16:30.756Z,101133.72
2022-12-25T09:17:34.088Z,101137.97
2022-12-25T09:18:37.237Z,101135.09
2022-12-25T09:19:40.360Z,101135.73
2022-12-25T09:20:43.543Z,101131.84
2022-12-25T09:21:46.837Z,101125.42
2022-12-25T09:22:50.022Z,101130.47
2022-12-25T09:23:53.395Z,101133.02
2022-12-25T09:24:56.571Z,101130.95
2022-12-25T09:26:00.695Z,101117.23
2022-12-25T09:27:03.961Z,101126.89
2022-12-25T09:28:07.177Z,101125.68
2022-12-25T09:29:10.384Z,101117.38
2022-12-25T09:30:13.915Z,101117.02
2022-12-25T09:31:17.266Z,101120.41
2022-12-25T09:32:20.469Z,101125.45
2022-12-25T09:33:24.049Z,101119.02
2022-12-25T09:34:27.271Z,101123.42
2022-12-25T09:35:30.359Z,101121.39
2022-12-25T09:36:33.609Z,101113.06
2022-12-25T09:37:36.755Z,101119.16
2022-12-25T09:38:40.144Z,101117.12
2022-12-25T09:39:46.412Z,101116.93
2022-12-25T09:40:48.929Z,101119.47
2022-12-25T09:42:07.605Z,101124.55
2022-12-25T09:43:13.848Z,101117.06
2022-12-25T09:44:20.585Z,101115.88
2022-12-25T09:45:27.411Z,101119.23
2022-12-25T09:46:37.245Z,101122.80
2022-12-25T09:47:41.929Z,101113.47
2022-12-25T09:48:48.717Z,101116.19
2022-12-25T09:50:13.637Z,101125.00
2022-12-25T09:51:18.762Z,101120.22
2022-12-25T09:52:46.149Z,101115.81
2022-12-25T09:54:04.804Z,101121.06
2022-12-25T09:55:19.667Z,101114.80
2022-12-25T09:56:25.340Z,101112.25
2022-12-25T09:57:28.712Z,101118.73
2022-12-25T09:58:33.400Z,101118.73
2022-12-25T09:59:36.973Z,101117.03
2022-12-25T10:00:46.972Z,101115.34
2022-12-25T10:01:56.601Z,101116.36
2022-12-25T10:03:15.108Z,101117.58
2022-12-25T10:04:54.623Z,101121.47
2022-12-25T10:06:22.013Z,101121.84
2022-12-25T10:07:28.840Z,101117.61
2022-12-25T10:08:35.470Z,101117.77
2022-12-25T10:09:48.272Z,101118.99
2022-12-25T10:11:07.059Z,101121.02
2022-12-25T10:12:28.668Z,101120.17
2022-12-25T10:13:54.708Z,101123.91
2022-12-25T10:15:07.446Z,101113.91
2022-12-25T10:16:14.840Z,101116.45
2022-12-25T10:17:51.624Z,101119.84
2022-12-25T10:19:00.890Z,101118.83
2022-12-25T10:20:22.491Z,101109.47
2022-12-25T10:21:27.623Z,101112.86
2022-12-25T10:22:37.235Z,101119.98
2022-12-25T10:23:43.759Z,101112.49
2022-12-25T10:24:50.198Z,101115.03
2022-12-25T10:25:53.987Z,101110.09
2022-12-25T10:26:57.344Z,101111.61
2022-12-25T10:28:07.208Z,101106.83
2022-12-25T10:29:13.429Z,101113.78
2022-12-25T10:30:20.659Z,101115.47
2022-12-25T10:31:26.981Z,101115.47
2022-12-25T10:32:30.203Z,101107.34
2022-12-25T10:33:33.231Z,101114.45
2022-12-25T10:34:40.102Z,101109.88
2022-12-25T10:35:43.188Z,101114.25
2022-12-25T10:36:46.857Z,101108.66
2022-12-25T10:37:59.553Z,101116.62
2022-12-25T10:39:03.047Z,101102.89
2022-12-25T10:40:21.691Z,101114.56
2022-12-25T10:41:50.477Z,101108.11
2022-12-25T10:42:57.141Z,101107.94
2022-12-25T10:44:00.724Z,101108.79
2022-12-25T10:45:07.346Z,101108.79
2022-12-25T10:46:14.067Z,101109.64
2022-12-25T10:47:20.823Z,101120.48
2022-12-25T10:48:29.633Z,101109.64
2022-12-25T10:49:38.823Z,101113.54
2022-12-25T10:50:42.982Z,101126.62
2022-12-25T10:51:46.228Z,101124.45
2022-12-25T10:52:56.550Z,101124.15
2022-12-25T10:54:02.394Z,101129.74
2022-12-25T10:55:12.759Z,101128.22
2022-12-25T10:56:17.207Z,101120.28
2022-12-25T10:57:23.158Z,101127.57
2022-12-25T10:58:26.729Z,101125.88
2022-12-25T10:59:33.467Z,101123.50
2022-12-25T11:00:37.326Z,101136.24
2022-12-25T11:01:40.652Z,101135.39
2022-12-25T11:02:44.260Z,101132.48
2022-12-25T11:03:51.205Z,101129.77
2022-12-25T11:05:03.591Z,101129.77
2022-12-25T11:06:09.801Z,101135.20
2022-12-25T11:07:24.946Z,101128.11
2022-12-25T11:08:30.238Z,101134.55
2022-12-25T11:09:34.086Z,101136.58
2022-12-25T11:10:43.312Z,101144.72
2022-12-25T11:11:47.678Z,101140.98
2022-12-25T11:12:52.554Z,101136.41
2022-12-25T11:13:59.262Z,101134.55
2022-12-25T11:15:37.614Z,101143.70
2022-12-25T11:16:40.769Z,101144.72
2022-12-25T11:17:47.547Z,101139.46
2022-12-25T11:18:52.510Z,101146.95
2022-12-25T11:20:00.373Z,101141.70
2022-12-25T11:22:28.324Z,101142.48
2022-12-25T11:23:32.417Z,101148.81
2022-12-25T11:24:35.467Z,101143.22
2022-12-25T11:25:38.515Z,101140.31
2022-12-25T11:26:49.767Z,101136.58
2022-12-25T11:27:58.699Z,101138.45
2022-12-25T11:29:02.936Z,101142.00
2022-12-25T11:30:11.228Z,101135.73
2022-12-25T11:31:21.588Z,101136.58
2022-12-25T11:32:31.355Z,101139.97
2022-12-25T11:33:50.293Z,101139.13
2022-12-25T11:34:53.709Z,101135.73
2022-12-25T11:35:59.634Z,101145.08
2022-12-25T11:37:04.741Z,101140.67
2022-12-25T11:38:09.094Z,101138.13
2022-12-25T11:39:37.609Z,101137.28
2022-12-25T11:40:47.345Z,101142.71
2022-12-25T11:42:16.510Z,101142.06
2022-12-25T11:43:39.748Z,101141.55
2022-12-25T11:45:04.649Z,101137.34
2022-12-25T11:46:17.668Z,101137.88
2022-12-25T11:47:27.339Z,101146.34
2022-12-25T11:48:36.897Z,101142.30
2022-12-25T11:49:48.684Z,101146.03
2022-12-25T11:50:52.002Z,101154.33
2022-12-25T11:51:56.999Z,101148.25
2022-12-25T11:53:03.291Z,101143.00
2022-12-25T11:54:27.968Z,101147.57
2022-12-25T11:55:40.523Z,101144.86
2022-12-25T11:56:44.017Z,101145.23
2022-12-25T11:57:50.679Z,101142.69
2022-12-25T12:00:15.784Z,101149.10
2022-12-25T12:01:39.046Z,101146.94
2022-12-25T12:02:58.304Z,101143.55
2022-12-25T12:04:04.608Z,101143.91
2022-12-25T12:05:23.182Z,101142.37
2022-12-25T12:06:47.701Z,101146.10
2022-12-25T12:07:57.255Z,101137.48
2022-12-25T12:09:26.700Z,101145.78
2022-12-25T12:10:36.574Z,101137.85
2022-12-25T12:11:43.298Z,101146.14
2022-12-25T12:12:59.024Z,101155.28
2022-12-25T12:14:22.410Z,101158.15
2022-12-25T12:15:37.689Z,101148.33
2022-12-25T12:16:41.341Z,101156.45
2022-12-25T12:17:46.043Z,101153.09
2022-12-25T12:18:50.811Z,101156.13
2022-12-25T12:19:54.099Z,101152.58
2022-12-25T12:21:03.026Z,101158.19
2022-12-25T12:22:07.079Z,101149.37
2022-12-25T12:23:16.774Z,101152.94
2022-12-25T12:24:22.311Z,101160.21
2022-12-25T12:25:26.542Z,101160.21
2022-12-25T12:26:34.067Z,101152.09
2022-12-25T12:27:40.045Z,101149.37
2022-12-25T12:28:46.717Z,101156.66
2022-12-25T12:29:52.964Z,101160.21
2022-12-25T12:31:04.540Z,101160.21
2022-12-25T12:32:27.436Z,101162.07
2022-12-25T12:33:34.164Z,101162.27
2022-12-25T12:34:47.097Z,101158.71
2022-12-25T12:35:50.869Z,101158.87
2022-12-25T12:37:06.702Z,101158.19
2022-12-25T12:39:29.918Z,101161.09
2022-12-25T12:40:38.885Z,101161.09
2022-12-25T12:41:48.251Z,101160.24
2022-12-25T12:42:51.697Z,101165.66
2022-12-25T12:43:58.056Z,101166.67
2022-12-25T12:45:19.650Z,101163.96
2022-12-25T12:46:32.137Z,101162.27
2022-12-25T12:47:44.141Z,101164.28
2022-12-25T12:48:50.200Z,101164.28
2022-12-25T12:50:01.096Z,101163.44
2022-12-25T12:51:05.779Z,101162.63
2022-12-25T12:52:27.281Z,101158.22
2022-12-25T12:53:32.319Z,101168.36
2022-12-25T12:54:39.173Z,101167.87
2022-12-25T12:55:42.344Z,101166.17
2022-12-25T12:57:00.620Z,101166.33
2022-12-25T12:58:05.577Z,101165.67
2022-12-25T12:59:10.175Z,101162.28
2022-12-25T13:00:17.714Z,101161.44
2022-12-25T13:01:47.040Z,101156.19
2022-12-25T13:02:59.975Z,101156.19
2022-12-25T13:04:23.264Z,101166.36
2022-12-25T13:05:55.871Z,101169.23